Time;durP1;ratioP1;P1;durP2;ratioP2;P2;SDS_P1;SDS_P2;PMS_P1;PMS_P2;Temp;Humidity;BMP_temperature;BMP_pressure;BME280_temperature;BME280_humidity;BME280_pressure;Samples;Min_cycle;Max_cycle;Signal;HPM_P1;HPM_P2
2021/03/17 00:00:57;;;;;;;12.10;7.32;;;;;;;-0.16;98.72;101099.44;4985834;28;20057;-46
2021/03/17 00:03:24;;;;;;;15.80;8.15;;;;;;;-0.14;98.19;101102.97;4985015;28;20531;-48
2021/03/17 00:05:52;;;;;;;10.98;7.07;;;;;;;-0.01;97.92;101104.75;4984859;28;20046;-49
2021/03/17 00:08:21;;;;;;;13.93;8.23;;;;;;;-0.06;96.88;101103.53;4985152;28;20046;-46
2021/03/17 00:10:52;;;;;;;15.35;7.55;;;;;;;-0.09;97.11;101105.84;4984685;28;20060;-49
2021/03/17 00:13:23;;;;;;;12.50;7.85;;;;;;;-0.36;98.24;101102.13;4991966;28;20085;-48
2021/03/17 00:15:50;;;;;;;13.02;8.13;;;;;;;-0.40;99.04;101106.03;4984528;28;20053;-51
2021/03/17 00:18:17;;;;;;;12.80;8.38;;;;;;;-0.50;99.03;101108.63;4984956;28;20049;-52
2021/03/17 00:20:44;;;;;;;12.48;8.52;;;;;;;-0.55;99.66;101109.91;4988417;28;20050;-48
2021/03/17 00:23:11;;;;;;;13.13;8.02;;;;;;;-0.62;100.00;101115.22;4989246;28;20528;-49
2021/03/17 00:25:40;;;;;;;13.60;8.52;;;;;;;-0.58;100.00;101110.53;4988376;28;20080;-50
2021/03/17 00:28:09;;;;;;;14.52;8.93;;;;;;;-0.68;100.00;101112.25;4989117;28;20046;-48
2021/03/17 00:30:37;;;;;;;13.23;8.13;;;;;;;-0.68;100.00;101109.72;4988174;28;20054;-50
2021/03/17 00:33:08;;;;;;;12.02;8.05;;;;;;;-0.68;100.00;101110.59;4988922;28;20051;-49
2021/03/17 00:35:35;;;;;;;13.82;8.80;;;;;;;-0.83;100.00;101117.84;4988087;28;20050;-51
2021/03/17 00:38:02;;;;;;;19.83;10.15;;;;;;;-0.87;100.00;101120.00;4988732;28;20062;-47
2021/03/17 00:40:29;;;;;;;19.60;9.25;;;;;;;-0.74;100.00;101121.81;4988349;28;20057;-46
2021/03/17 00:42:55;;;;;;;14.60;8.65;;;;;;;-0.71;100.00;101120.41;4988409;28;20057;-47
2021/03/17 00:45:22;;;;;;;17.80;9.25;;;;;;;-0.73;100.00;101118.56;4988862;28;20054;-50
2021/03/17 00:47:48;;;;;;;17.00;9.48;;;;;;;-0.72;100.00;101118.66;4987981;28;20050;-48
2021/03/17 00:50:16;;;;;;;17.23;9.60;;;;;;;-0.64;100.00;101114.22;4988525;28;20061;-51
2021/03/17 00:52:43;;;;;;;17.67;9.57;;;;;;;-0.54;100.00;101110.00;4988034;28;20098;-49
2021/03/17 00:55:12;;;;;;;16.45;9.80;;;;;;;-0.53;100.00;101110.88;4988346;28;20141;-51
2021/03/17 00:57:40;;;;;;;14.85;9.13;;;;;;;-0.45;100.00;101106.44;4987639;28;20046;-50
2021/03/17 01:00:09;;;;;;;15.63;9.35;;;;;;;-0.23;100.00;101106.41;4989316;28;20093;-47
2021/03/17 01:02:36;;;;;;;16.85;9.98;;;;;;;-0.12;100.00;101103.94;4987701;28;20126;-50
2021/03/17 01:05:03;;;;;;;15.23;9.13;;;;;;;-0.09;100.00;101099.16;4988493;28;20057;-48
2021/03/17 01:07:30;;;;;;;16.08;8.75;;;;;;;-0.15;100.00;101101.19;4987419;28;20047;-53
2021/03/17 01:09:56;;;;;;;18.90;9.73;;;;;;;-0.21;100.00;101094.84;4987636;28;20043;-52
2021/03/17 01:12:23;;;;;;;16.08;9.13;;;;;;;-0.16;100.00;101096.94;4988347;28;20046;-48
2021/03/17 01:14:50;;;;;;;15.07;9.60;;;;;;;-0.06;100.00;101096.84;4987751;28;20053;-50
2021/03/17 01:17:16;;;;;;;15.60;9.38;;;;;;;0.09;100.00;101102.13;4988068;28;20525;-47
2021/03/17 01:19:43;;;;;;;13.13;9.43;;;;;;;0.15;99.74;101096.69;4987567;28;20053;-47
2021/03/17 01:22:10;;;;;;;13.35;9.48;;;;;;;0.18;99.48;101107.84;4987945;28;20078;-49
2021/03/17 01:24:37;;;;;;;15.15;9.13;;;;;;;0.12;99.31;101104.00;4987722;28;20106;-53
2021/03/17 01:27:03;;;;;;;12.50;8.70;;;;;;;0.18;99.58;101109.50;4988116;28;20081;-49
2021/03/17 01:29:30;;;;;;;16.13;9.75;;;;;;;0.24;99.26;101100.78;4987407;28;20050;-46
2021/03/17 01:31:57;;;;;;;15.07;9.73;;;;;;;0.24;99.39;101098.25;4987672;28;20057;-48
2021/03/17 01:34:24;;;;;;;14.02;9.05;;;;;;;1.03;96.91;101104.72;4987702;28;20050;-50
2021/03/17 01:36:51;;;;;;;14.52;9.00;;;;;;;1.31;93.86;101105.00;4987098;28;20042;-52
2021/03/17 01:39:17;;;;;;;16.50;9.20;;;;;;;0.99;95.08;101102.75;4987548;28;20053;-47
2021/03/17 01:41:44;;;;;;;16.88;8.98;;;;;;;1.33;93.24;101103.44;4987244;28;20051;-49
2021/03/17 01:44:10;;;;;;;14.68;8.70;;;;;;;1.23;94.06;101112.03;4987300;28;20042;-52
2021/03/17 01:46:37;;;;;;;12.18;9.00;;;;;;;1.24;93.84;101103.69;4986881;28;20563;-49
2021/03/17 01:49:03;;;;;;;14.40;8.90;;;;;;;1.07;94.63;101111.75;4987181;28;20050;-52
2021/03/17 01:51:30;;;;;;;14.40;8.57;;;;;;;1.21;93.78;101112.72;4986715;28;20054;-51
2021/03/17 01:53:57;;;;;;;15.02;9.07;;;;;;;1.02;94.70;101103.84;4987184;28;20046;-49
2021/03/17 01:56:23;;;;;;;15.73;8.90;;;;;;;0.93;95.59;101110.78;4987321;28;20526;-47
2021/03/17 01:58:50;;;;;;;11.65;8.68;;;;;;;0.76;96.59;101108.69;4986646;28;20042;-49
2021/03/17 02:01:16;;;;;;;14.52;9.80;;;;;;;0.84;96.96;101111.78;4987441;28;20316;-48
2021/03/17 02:03:44;;;;;;;18.17;10.45;;;;;;;0.90;96.78;101100.47;4986716;28;20053;-48
2021/03/17 02:06:10;;;;;;;13.90;8.77;;;;;;;1.58;94.26;101103.50;4986790;28;20050;-52
2021/03/17 02:08:41;;;;;;;14.50;8.68;;;;;;;1.32;93.56;101109.28;4986812;28;20413;-47
2021/03/17 02:11:11;;;;;;;15.43;9.57;;;;;;;1.07;94.75;101109.22;4987022;28;20058;-46
2021/03/17 02:14:03;;;;;;;13.93;8.98;;;;;;;0.85;96.08;101116.91;4986660;28;20420;-47
2021/03/17 02:16:49;;;;;;;14.77;8.95;;;;;;;0.72;96.33;101112.63;4986037;28;20046;-48
2021/03/17 02:19:40;;;;;;;14.40;9.65;;;;;;;0.85;96.83;101105.97;4987013;28;20503;-48
2021/03/17 02:22:33;;;;;;;13.77;9.10;;;;;;;0.97;96.77;101107.72;4986566;28;20058;-50
2021/03/17 02:25:20;;;;;;;13.95;9.23;;;;;;;1.14;96.11;101097.91;4986747;28;20050;-48
2021/03/17 02:28:08;;;;;;;15.25;9.38;;;;;;;1.26;95.73;101092.06;4986249;28;20057;-50
2021/03/17 02:31:24;;;;;;;12.73;8.85;;;;;;;1.31;94.44;101099.97;4986058;28;20047;-46
2021/03/17 02:34:07;;;;;;;16.20;9.43;;;;;;;1.95;91.03;101100.94;4986270;28;20433;-48
2021/03/17 02:36:52;;;;;;;15.80;9.45;;;;;;;1.36;92.84;101096.09;4985501;28;20280;-49
2021/03/17 02:39:22;;;;;;;15.98;9.02;;;;;;;1.02;94.84;101093.78;4993181;28;20046;-45
2021/03/17 02:42:03;;;;;;;14.63;9.60;;;;;;;1.08;95.86;101107.56;4985421;28;20054;-51
2021/03/17 02:44:29;;;;;;;16.42;9.50;;;;;;;1.38;94.25;101101.25;4985784;28;20049;-49
2021/03/17 02:47:00;;;;;;;13.52;8.27;;;;;;;1.24;95.27;101100.28;4985892;28;20050;-46
2021/03/17 02:49:34;;;;;;;12.63;8.73;;;;;;;1.21;94.77;101102.63;4985736;28;20149;-47
2021/03/17 02:52:01;;;;;;;13.50;8.13;;;;;;;1.01;95.56;101102.09;4986478;28;20054;-50
2021/03/17 02:54:29;;;;;;;14.05;8.73;;;;;;;0.93;96.59;101099.81;4986010;28;20050;-48
2021/03/17 02:57:00;;;;;;;13.00;9.25;;;;;;;0.89;96.74;101103.75;4985949;28;20042;-50
2021/03/17 02:59:28;;;;;;;15.07;8.93;;;;;;;0.64;97.81;101106.16;4985572;28;20053;-47
2021/03/17 03:01:58;;;;;;;14.10;9.45;;;;;;;0.56;98.50;101111.44;4985940;28;20042;-49
2021/03/17 03:04:26;;;;;;;12.23;8.82;;;;;;;1.00;98.26;101112.06;4985148;28;20073;-50
2021/03/17 03:06:56;;;;;;;14.48;8.90;;;;;;;1.31;95.16;101109.19;4984896;28;20049;-47
2021/03/17 03:09:26;;;;;;;29.58;16.42;;;;;;;1.18;95.07;101110.84;4991968;28;20038;-49
2021/03/17 03:11:55;;;;;;;43.70;26.58;;;;;;;1.34;95.02;101099.28;4985783;28;20475;-46
2021/03/17 03:14:24;;;;;;;20.30;13.60;;;;;;;1.23;95.00;101101.06;4992018;28;20046;-46
2021/03/17 03:16:53;;;;;;;18.88;10.23;;;;;;;1.27;95.02;101106.44;4985256;28;20046;-46
2021/03/17 03:19:23;;;;;;;16.10;10.60;;;;;;;1.23;95.43;101107.00;4985756;28;20085;-45
2021/03/17 03:21:53;;;;;;;14.55;9.98;;;;;;;1.32;95.18;101099.19;4985660;28;20057;-48
2021/03/17 03:24:21;;;;;;;17.80;9.25;;;;;;;1.08;96.00;101105.94;4985863;28;20043;-46
2021/03/17 03:26:52;;;;;;;15.32;9.63;;;;;;;0.90;97.27;101104.63;4985224;28;20050;-51
2021/03/17 03:29:19;;;;;;;18.85;11.40;;;;;;;0.82;98.51;101109.13;4985412;28;20046;-48
2021/03/17 03:31:46;;;;;;;27.17;11.93;;;;;;;1.02;97.52;101108.03;4984834;28;20056;-48
2021/03/17 03:34:16;;;;;;;17.45;10.18;;;;;;;0.99;97.61;101108.69;4985213;28;20048;-44
2021/03/17 03:36:43;;;;;;;16.15;10.23;;;;;;;1.14;97.03;101103.81;4985010;28;20060;-49
2021/03/17 03:39:10;;;;;;;16.58;10.63;;;;;;;0.86;98.34;101112.75;4985539;28;20057;-45
2021/03/17 03:41:37;;;;;;;20.38;11.38;;;;;;;0.86;98.78;101106.06;4985125;28;20054;-49
2021/03/17 03:44:04;;;;;;;15.07;10.23;;;;;;;1.13;98.07;101107.13;4985236;28;20047;-47
2021/03/17 03:46:36;;;;;;;18.38;9.93;;;;;;;1.28;97.36;101103.13;4984593;28;20112;-47
2021/03/17 03:49:05;;;;;;;18.58;9.50;;;;;;;1.28;97.08;101112.34;4985411;28;20417;-50
2021/03/17 03:51:33;;;;;;;16.52;8.82;;;;;;;1.08;98.31;101120.19;4984960;28;20050;-49
2021/03/17 03:54:28;;;;;;;14.82;9.35;;;;;;;0.93;99.44;101120.00;4984871;28;20050;-51
2021/03/17 03:57:23;;;;;;;17.33;10.15;;;;;;;1.05;98.37;101115.78;4984854;28;20038;-52
2021/03/17 03:59:55;;;;;;;14.50;9.23;;;;;;;0.89;99.36;101113.84;4982760;28;20117;-49
2021/03/17 04:02:25;;;;;;;18.27;9.93;;;;;;;1.00;99.05;101117.13;4991690;28;20396;-46
2021/03/17 04:04:55;;;;;;;17.70;10.85;;;;;;;0.96;99.39;101117.66;4985065;28;20145;-46
2021/03/17 04:07:23;;;;;;;19.35;10.38;;;;;;;0.72;100.00;101114.28;4992063;28;20784;-48
2021/03/17 04:09:53;;;;;;;23.92;11.48;;;;;;;0.83;100.00;101127.63;4987333;28;20050;-51
2021/03/17 04:12:22;;;;;;;17.67;11.15;;;;;;;1.13;100.00;101119.72;4990367;28;20058;-47
2021/03/17 04:14:56;;;;;;;20.05;11.45;;;;;;;1.24;99.00;101128.91;4986990;28;20054;-49
2021/03/17 04:17:27;;;;;;;18.20;12.82;;;;;;;1.08;99.56;101125.22;4991140;28;20061;-46
2021/03/17 04:20:06;;;;;;;25.45;13.77;;;;;;;0.88;100.00;101126.31;4984886;28;20054;-49
2021/03/17 04:22:35;;;;;;;24.65;14.45;;;;;;;0.65;100.00;101125.56;4988260;28;20519;-46
2021/03/17 04:25:05;;;;;;;17.63;9.93;;;;;;;0.68;100.00;101123.25;4987260;28;20042;-53
2021/03/17 04:27:34;;;;;;;15.70;9.82;;;;;;;0.74;100.00;101127.88;4984386;28;20054;-50
2021/03/17 04:30:04;;;;;;;18.58;10.10;;;;;;;1.00;100.00;101132.25;4984758;28;20047;-51
2021/03/17 04:32:32;;;;;;;15.85;10.32;;;;;;;1.11;99.88;101125.44;4989800;28;20054;-49
2021/03/17 04:35:00;;;;;;;18.35;10.05;;;;;;;0.91;100.00;101127.41;4977144;28;20137;-49
2021/03/17 04:37:30;;;;;;;17.55;9.80;;;;;;;1.24;99.43;101136.47;4987167;28;20135;-48
2021/03/17 04:39:59;;;;;;;22.23;10.05;;;;;;;1.18;98.90;101132.66;4985520;28;20078;-49
2021/03/17 04:42:26;;;;;;;18.00;9.10;;;;;;;1.15;99.38;101142.53;4983879;28;20057;-50
2021/03/17 04:44:54;;;;;;;14.50;8.85;;;;;;;1.20;99.35;101133.63;4983605;28;20045;-48
2021/03/17 04:47:21;;;;;;;20.23;9.68;;;;;;;1.29;98.01;101134.28;4989600;28;20530;-52
2021/03/17 04:49:50;;;;;;;17.02;8.60;;;;;;;1.42;97.74;101133.50;4983415;28;20050;-48
2021/03/17 04:52:19;;;;;;;17.38;9.80;;;;;;;1.24;98.40;101135.59;4984428;28;20053;-50
2021/03/17 04:54:45;;;;;;;17.55;9.57;;;;;;;0.98;99.83;101139.72;4985190;28;20042;-47
2021/03/17 04:57:14;;;;;;;15.07;9.35;;;;;;;0.91;100.00;101144.19;4985434;28;20050;-45
2021/03/17 04:59:42;;;;;;;18.40;9.85;;;;;;;1.02;100.00;101145.84;4984974;28;20493;-48
2021/03/17 05:02:11;;;;;;;20.90;10.57;;;;;;;0.98;100.00;101143.88;4985338;28;20425;-49
2021/03/17 05:04:39;;;;;;;14.77;10.07;;;;;;;0.91;100.00;101147.59;4985053;28;20046;-48
2021/03/17 05:07:07;;;;;;;16.60;10.32;;;;;;;1.09;100.00;101154.72;4992191;28;20054;-51
2021/03/17 05:09:34;;;;;;;16.92;9.68;;;;;;;1.15;99.54;101153.50;4998079;28;20429;-49
2021/03/17 05:12:03;;;;;;;18.88;9.02;;;;;;;1.02;100.00;101154.28;4997612;28;20054;-48
2021/03/17 05:14:32;;;;;;;17.70;9.52;;;;;;;0.75;100.00;101159.88;4988905;28;20127;-48
2021/03/17 05:17:01;;;;;;;13.52;9.50;;;;;;;1.12;100.00;101157.47;4988737;28;20077;-46
2021/03/17 05:19:32;;;;;;;14.48;9.02;;;;;;;0.95;100.00;101158.78;4988745;28;20464;-50
2021/03/17 05:22:00;;;;;;;20.48;9.70;;;;;;;0.93;100.00;101158.69;4988826;28;20050;-49
2021/03/17 05:24:27;;;;;;;17.02;9.65;;;;;;;0.93;100.00;101162.84;4995254;28;20046;-50
2021/03/17 05:26:56;;;;;;;20.20;9.77;;;;;;;1.05;100.00;101160.31;4988142;28;20050;-44
2021/03/17 05:29:24;;;;;;;16.02;10.32;;;;;;;0.85;100.00;101166.47;4995839;28;20049;-45
2021/03/17 05:31:52;;;;;;;18.83;10.00;;;;;;;0.89;100.00;101171.81;4992075;28;20050;-49
2021/03/17 05:34:19;;;;;;;16.25;11.07;;;;;;;1.04;100.00;101169.53;4990086;28;20058;-50
2021/03/17 05:36:47;;;;;;;22.08;11.20;;;;;;;0.93;100.00;101171.28;4995447;28;20084;-49
2021/03/17 05:39:14;;;;;;;18.00;10.25;;;;;;;1.14;100.00;101176.97;4995491;28;20046;-44
2021/03/17 05:41:41;;;;;;;23.10;11.10;;;;;;;0.97;100.00;101175.78;4992928;28;20516;-44
2021/03/17 05:44:09;;;;;;;18.20;10.75;;;;;;;1.31;100.00;101179.81;4989667;28;20054;-44
2021/03/17 05:46:37;;;;;;;19.95;9.75;;;;;;;1.10;100.00;101177.50;4997261;28;20050;-47
2021/03/17 05:49:05;;;;;;;16.05;10.68;;;;;;;1.31;100.00;101184.88;4988076;28;20132;-47
2021/03/17 05:51:33;;;;;;;19.33;11.35;;;;;;;1.30;100.00;101180.59;4986673;28;20046;-44
2021/03/17 05:54:00;;;;;;;19.52;11.20;;;;;;;1.32;100.00;101189.13;4987766;28;20054;-45
2021/03/17 05:56:30;;;;;;;22.90;11.93;;;;;;;1.42;100.00;101194.91;4988952;28;20051;-45
2021/03/17 05:59:01;;;;;;;19.63;10.82;;;;;;;1.43;100.00;101193.28;4982097;28;20042;-48
2021/03/17 06:01:28;;;;;;;20.45;10.95;;;;;;;1.48;100.00;101195.38;4985507;28;20559;-48
2021/03/17 06:03:58;;;;;;;22.08;10.93;;;;;;;1.47;100.00;101201.16;4985476;28;20243;-47
2021/03/17 06:06:28;;;;;;;15.30;9.82;;;;;;;1.58;99.88;101208.63;4985431;28;20056;-50
2021/03/17 06:08:59;;;;;;;23.23;10.98;;;;;;;1.70;99.30;101207.81;4985420;28;20050;-50
2021/03/17 06:11:27;;;;;;;21.15;11.27;;;;;;;1.48;100.00;101204.59;4985529;28;20043;-47
2021/03/17 06:13:56;;;;;;;20.33;10.60;;;;;;;1.83;99.02;101203.63;4985203;28;20072;-50
2021/03/17 06:16:24;;;;;;;21.60;11.02;;;;;;;1.90;98.30;101211.75;4992621;28;20050;-47
2021/03/17 06:19:02;;;;;;;18.45;10.82;;;;;;;1.82;98.77;101206.94;4986289;28;20049;-48
2021/03/17 06:21:29;;;;;;;18.65;10.70;;;;;;;1.99;98.15;101208.97;4986785;28;20043;-46
2021/03/17 06:23:59;;;;;;;23.42;11.20;;;;;;;1.79;98.27;101212.63;4987241;28;20061;-46
2021/03/17 06:26:26;;;;;;;21.63;11.98;;;;;;;1.46;100.00;101209.50;4986332;28;20046;-50
2021/03/17 06:28:53;;;;;;;19.88;12.43;;;;;;;1.77;98.41;101214.19;4986546;28;20112;-48
2021/03/17 06:31:23;;;;;;;21.05;11.60;;;;;;;2.13;97.03;101220.00;4987113;28;20053;-48
2021/03/17 06:33:52;;;;;;;20.40;11.55;;;;;;;2.21;96.18;101219.72;4986321;28;20116;-46
2021/03/17 06:36:21;;;;;;;22.65;11.65;;;;;;;2.23;96.43;101218.19;4986855;28;20058;-48
2021/03/17 06:38:49;;;;;;;19.20;11.57;;;;;;;2.32;96.58;101217.06;4986415;28;20054;-52
2021/03/17 06:41:18;;;;;;;20.98;11.18;;;;;;;2.29;95.98;101221.13;4986885;28;20054;-45
2021/03/17 06:43:49;;;;;;;21.40;11.68;;;;;;;2.45;95.02;101218.00;4986784;28;20047;-46
2021/03/17 06:46:20;;;;;;;21.23;11.85;;;;;;;2.50;94.42;101223.34;4993261;28;20045;-46
2021/03/17 06:48:55;;;;;;;18.63;11.57;;;;;;;2.46;94.45;101217.22;4986397;28;20045;-46
2021/03/17 06:51:22;;;;;;;21.65;12.32;;;;;;;2.35;95.39;101214.72;4992598;28;20511;-45
2021/03/17 06:53:51;;;;;;;21.48;12.52;;;;;;;2.31;96.44;101228.78;4985878;28;20054;-47
2021/03/17 06:56:21;;;;;;;25.23;12.50;;;;;;;2.38;95.38;101232.63;4986476;28;20054;-51
2021/03/17 06:58:53;;;;;;;22.30;13.10;;;;;;;2.05;96.77;101234.63;4985715;28;22620;-47
2021/03/17 07:01:26;;;;;;;23.85;13.23;;;;;;;2.29;97.59;101235.41;4986448;28;20057;-47
2021/03/17 07:03:58;;;;;;;25.67;13.20;;;;;;;2.43;96.53;101243.91;4985879;28;20081;-45
2021/03/17 07:06:25;;;;;;;28.27;13.52;;;;;;;2.63;95.18;101241.06;4985894;28;20039;-49
2021/03/17 07:08:52;;;;;;;25.75;13.10;;;;;;;2.57;94.95;101244.84;4985791;28;20108;-47
2021/03/17 07:11:29;;;;;;;25.40;12.55;;;;;;;2.94;93.30;101249.00;4992541;28;20061;-51
2021/03/17 07:14:00;;;;;;;25.95;13.27;;;;;;;2.48;95.44;101253.56;4977617;28;20105;-47
2021/03/17 07:16:38;;;;;;;22.88;13.20;;;;;;;2.84;93.41;101241.59;4985754;28;20061;-45
2021/03/17 07:19:44;;;;;;;24.58;12.75;;;;;;;2.75;93.18;101246.06;4992546;28;20088;-50
2021/03/17 07:22:13;;;;;;;24.30;12.98;;;;;;;2.63;93.89;101253.69;4984425;28;20408;-46
2021/03/17 07:24:46;;;;;;;23.02;12.75;;;;;;;3.10;93.96;101258.50;4985505;28;20053;-51
2021/03/17 07:27:21;;;;;;;22.35;12.90;;;;;;;3.34;91.93;101248.19;4985914;28;20054;-47
2021/03/17 07:29:59;;;;;;;22.23;13.50;;;;;;;3.20;92.34;101257.44;4985433;28;20056;-45
2021/03/17 07:32:58;;;;;;;22.77;12.65;;;;;;;3.27;91.66;101257.03;4985516;28;20468;-47
2021/03/17 07:35:36;;;;;;;26.23;13.05;;;;;;;3.35;90.40;101253.34;4985400;28;20078;-46
2021/03/17 07:38:14;;;;;;;22.85;12.63;;;;;;;3.29;92.35;101263.06;4985786;28;20050;-46
2021/03/17 07:40:44;;;;;;;25.98;13.48;;;;;;;3.41;90.12;101256.25;4985487;28;20062;-50
2021/03/17 07:43:13;;;;;;;21.83;12.88;;;;;;;3.57;89.43;101256.44;4985724;28;20101;-47
2021/03/17 07:45:40;;;;;;;21.48;13.23;;;;;;;4.00;88.72;101263.28;4984886;28;20054;-49
2021/03/17 07:48:11;;;;;;;22.15;12.80;;;;;;;3.96;89.42;101263.88;4986140;28;20557;-50
2021/03/17 07:50:40;;;;;;;24.73;13.80;;;;;;;4.11;89.07;101257.19;4985177;28;20057;-47
2021/03/17 07:53:19;;;;;;;24.83;13.40;;;;;;;4.73;85.07;101264.28;4985922;28;20424;-47
2021/03/17 07:55:47;;;;;;;23.63;13.18;;;;;;;4.34;84.69;101262.03;4985293;28;20129;-49
2021/03/17 07:58:14;;;;;;;20.88;12.32;;;;;;;4.23;86.96;101264.69;4986139;28;20050;-47
2021/03/17 08:00:42;;;;;;;25.50;13.77;;;;;;;4.09;86.33;101268.91;4984869;28;20058;-45
2021/03/17 08:03:14;;;;;;;25.75;14.05;;;;;;;4.21;86.97;101274.72;4985551;28;20101;-46
2021/03/17 08:05:41;;;;;;;20.48;13.07;;;;;;;4.34;85.73;101262.03;4985101;28;20125;-53
2021/03/17 08:08:10;;;;;;;23.15;14.40;;;;;;;4.53;84.58;101263.97;4985812;28;20054;-45
2021/03/17 08:10:43;;;;;;;26.30;13.05;;;;;;;4.64;84.35;101271.34;4984746;28;20046;-48
2021/03/17 08:13:12;;;;;;;24.50;13.45;;;;;;;4.30;86.01;101275.28;4985540;28;20183;-50
2021/03/17 08:15:42;;;;;;;22.10;13.55;;;;;;;4.97;84.25;101283.44;4984880;28;20053;-47
2021/03/17 08:18:33;;;;;;;26.58;13.70;;;;;;;4.46;85.94;101282.13;4987267;28;20045;-48
2021/03/17 08:21:02;;;;;;;26.98;14.32;;;;;;;4.42;87.20;101277.66;4986572;28;20512;-50
2021/03/17 08:23:40;;;;;;;22.30;13.40;;;;;;;4.92;84.77;101277.22;4985352;28;20046;-48
2021/03/17 08:26:12;;;;;;;22.17;13.43;;;;;;;4.95;84.10;101281.63;4985505;28;20060;-48
2021/03/17 08:29:12;;;;;;;28.52;14.25;;;;;;;5.03;83.25;101277.84;4995613;28;20042;-45
2021/03/17 08:31:39;;;;;;;22.48;14.45;;;;;;;4.87;82.29;101288.78;4985502;28;20105;-44
2021/03/17 08:34:18;;;;;;;25.05;14.63;;;;;;;4.91;83.42;101287.31;4992289;28;20049;-46
2021/03/17 08:36:48;;;;;;;24.98;13.60;;;;;;;4.87;83.44;101288.78;4988760;28;20420;-44
2021/03/17 08:39:37;;;;;;;20.92;13.38;;;;;;;4.84;83.42;101291.13;4986020;28;20050;-49
2021/03/17 08:42:26;;;;;;;21.75;12.55;;;;;;;5.16;80.83;101295.53;4989393;28;20467;-46
2021/03/17 08:44:53;;;;;;;21.70;13.38;;;;;;;5.01;82.54;101303.13;4991524;28;20172;-49
2021/03/17 08:47:33;;;;;;;21.55;13.55;;;;;;;4.82;83.36;101287.63;4989265;28;20046;-46
2021/03/17 08:50:15;;;;;;;21.75;13.60;;;;;;;4.84;82.99;101293.66;4989756;28;20070;-49
2021/03/17 08:52:48;;;;;;;22.50;14.32;;;;;;;5.22;82.29;101295.00;4993095;28;20061;-51
2021/03/17 08:55:35;;;;;;;31.05;17.70;;;;;;;5.37;81.11;101295.88;4990633;28;20153;-48
2021/03/17 08:58:08;;;;;;;29.95;14.88;;;;;;;5.58;81.30;101298.72;4998158;28;20057;-48
2021/03/17 09:00:42;;;;;;;24.90;15.35;;;;;;;5.59;80.67;101296.28;4997106;28;20460;-45
2021/03/17 09:03:39;;;;;;;25.73;14.07;;;;;;;6.05;78.22;101305.53;4998384;28;20069;-46
2021/03/17 09:06:17;;;;;;;25.63;16.30;;;;;;;6.30;77.83;101303.53;4997856;28;20051;-52
2021/03/17 09:09:00;;;;;;;20.73;12.90;;;;;;;6.28;78.39;101305.09;4997613;28;20476;-45
2021/03/17 09:11:29;;;;;;;19.75;13.20;;;;;;;6.41;77.66;101306.63;4999015;28;20060;-46
2021/03/17 09:14:04;;;;;;;21.30;13.45;;;;;;;6.40;76.79;101306.56;4997163;28;20416;-45
2021/03/17 09:16:34;;;;;;;21.67;13.20;;;;;;;6.47;76.57;101306.97;4993045;28;20396;-51
2021/03/17 09:19:11;;;;;;;21.90;12.20;;;;;;;6.53;75.21;101311.50;5003043;28;20057;-52
2021/03/17 09:21:42;;;;;;;22.20;13.50;;;;;;;6.11;77.86;101306.78;4993319;28;20053;-49
2021/03/17 09:24:28;;;;;;;21.55;13.25;;;;;;;6.15;78.64;101315.44;4996079;28;20104;-50
2021/03/17 09:27:02;;;;;;;18.75;11.85;;;;;;;5.96;78.24;101317.75;4988554;28;20379;-45
2021/03/17 09:29:28;;;;;;;13.73;10.35;;;;;;;6.20;78.10;101324.19;4988230;28;20042;-46
2021/03/17 09:31:55;;;;;;;18.13;11.43;;;;;;;5.77;79.01;101315.84;4988045;28;20133;-46
2021/03/17 09:34:27;;;;;;;15.40;10.45;;;;;;;6.03;79.19;101323.28;5006237;28;20052;-49
2021/03/17 09:37:02;;;;;;;17.10;12.20;;;;;;;6.06;77.65;101323.44;4997529;28;20080;-46
2021/03/17 09:39:29;;;;;;;18.48;12.57;;;;;;;6.38;79.11;101324.28;4997602;28;20049;-47
2021/03/17 09:41:55;;;;;;;16.67;10.55;;;;;;;6.64;76.76;101325.63;5002977;28;20418;-48
2021/03/17 09:44:23;;;;;;;14.48;10.00;;;;;;;5.88;79.00;101323.28;4996569;28;20559;-48
2021/03/17 09:46:53;;;;;;;13.95;9.23;;;;;;;6.29;77.90;101339.06;5003221;28;20049;-45
2021/03/17 09:49:22;;;;;;;14.15;8.52;;;;;;;6.20;77.10;101330.94;4995078;28;20820;-48
2021/03/17 09:51:51;;;;;;;15.95;10.02;;;;;;;6.12;78.32;101326.31;4985918;28;20046;-48
2021/03/17 09:54:22;;;;;;;15.95;10.13;;;;;;;6.13;78.86;101329.72;4993389;28;20050;-48
2021/03/17 09:57:00;;;;;;;14.82;10.10;;;;;;;6.41;77.74;101331.19;4999541;28;20690;-47
2021/03/17 09:59:31;;;;;;;17.33;10.38;;;;;;;6.13;78.48;101337.34;4994024;28;20133;-49
2021/03/17 10:02:04;;;;;;;15.68;10.25;;;;;;;6.00;79.48;101335.81;4967545;28;20140;-46
2021/03/17 10:04:42;;;;;;;17.33;9.85;;;;;;;6.45;78.48;101335.66;4986948;28;20050;-47
2021/03/17 10:07:13;;;;;;;16.75;9.70;;;;;;;6.50;75.51;101331.69;5002961;28;20054;-52
2021/03/17 10:09:41;;;;;;;16.83;10.43;;;;;;;6.70;76.25;101336.16;4993114;28;20104;-49
2021/03/17 10:12:28;;;;;;;16.75;9.25;;;;;;;6.56;76.31;101337.06;4987856;28;20054;-48
2021/03/17 10:14:59;;;;;;;14.63;9.52;;;;;;;6.68;76.52;101341.94;4988147;28;20459;-51
2021/03/17 10:17:28;;;;;;;15.52;9.70;;;;;;;5.86;80.51;101345.19;4997258;28;20073;-47
2021/03/17 10:20:00;;;;;;;19.05;9.98;;;;;;;5.92;80.38;101342.16;4995692;28;20129;-45
2021/03/17 10:22:29;;;;;;;18.13;10.30;;;;;;;5.63;81.67;101338.81;4997575;28;20049;-48
2021/03/17 10:24:59;;;;;;;19.73;10.75;;;;;;;5.72;82.93;101343.56;4989363;28;20116;-45
2021/03/17 10:27:31;;;;;;;16.98;10.18;;;;;;;5.61;82.25;101342.97;4996821;28;20263;-47
2021/03/17 10:30:01;;;;;;;15.45;10.27;;;;;;;6.01;80.98;101345.22;4988297;28;20061;-47
2021/03/17 10:32:28;;;;;;;14.70;9.30;;;;;;;5.73;81.19;101341.88;4998768;28;20673;-48
2021/03/17 10:34:55;;;;;;;17.15;10.60;;;;;;;6.10;81.29;101342.25;4993324;28;20074;-49
2021/03/17 10:37:22;;;;;;;17.23;11.45;;;;;;;6.44;79.40;101346.63;4996246;28;20045;-45
2021/03/17 10:39:52;;;;;;;16.00;9.20;;;;;;;6.64;77.23;101346.00;5003900;28;20046;-50
2021/03/17 10:42:25;;;;;;;16.30;9.30;;;;;;;6.41;78.72;101343.91;4994971;28;20053;-48
2021/03/17 10:45:25;;;;;;;18.17;9.63;;;;;;;6.11;80.29;101350.00;4986453;28;20058;-45
2021/03/17 10:47:52;;;;;;;16.42;10.00;;;;;;;6.87;75.90;101347.16;4971288;28;20068;-48
2021/03/17 10:50:34;;;;;;;13.75;8.20;;;;;;;6.78;77.06;101346.69;4994669;28;20162;-47
2021/03/17 10:53:01;;;;;;;14.90;9.20;;;;;;;7.07;74.58;101350.72;4999548;28;20050;-46
2021/03/17 10:55:30;;;;;;;15.82;9.30;;;;;;;6.82;77.25;101352.03;4987202;28;20046;-48
2021/03/17 10:58:10;;;;;;;15.75;9.68;;;;;;;7.35;73.60;101355.53;4985889;28;20061;-48
2021/03/17 11:00:37;;;;;;;16.33;9.88;;;;;;;7.70;73.85;101348.72;4991773;28;20420;-49
2021/03/17 11:03:21;;;;;;;16.33;9.48;;;;;;;7.40;74.69;101354.97;4986934;28;20524;-47
2021/03/17 11:05:49;;;;;;;17.65;9.73;;;;;;;7.68;73.07;101352.88;4992710;28;20054;-46
2021/03/17 11:08:15;;;;;;;16.85;10.55;;;;;;;7.42;73.98;101349.94;4993160;28;20262;-45
2021/03/17 11:10:54;;;;;;;17.02;10.13;;;;;;;7.16;74.68;101348.63;4991421;28;20503;-47
2021/03/17 11:13:20;;;;;;;18.33;10.85;;;;;;;7.29;76.14;101345.03;5002072;28;20054;-50
2021/03/17 11:16:13;;;;;;;21.92;11.57;;;;;;;7.83;74.95;101351.06;4994844;28;20046;-52
2021/03/17 11:18:51;;;;;;;19.58;10.13;;;;;;;7.95;72.55;101350.75;4996511;28;20105;-47
2021/03/17 11:21:24;;;;;;;15.93;9.90;;;;;;;7.01;73.77;101348.75;5000243;28;20046;-47
2021/03/17 11:23:53;;;;;;;19.92;10.45;;;;;;;7.25;75.23;101348.22;4994295;28;20050;-45
2021/03/17 11:26:23;;;;;;;18.02;10.00;;;;;;;7.08;76.83;101350.81;4989264;28;20060;-48
2021/03/17 11:28:51;;;;;;;12.48;8.43;;;;;;;8.23;74.12;101355.44;4998694;28;20049;-48
2021/03/17 11:31:23;;;;;;;11.57;7.25;;;;;;;10.13;66.43;101354.97;4986336;28;20152;-47
2021/03/17 11:33:50;;;;;;;10.73;6.05;;;;;;;10.10;63.63;101361.66;4991293;28;20053;-47
2021/03/17 11:36:16;;;;;;;9.65;6.30;;;;;;;10.71;60.21;101364.81;4987533;28;20049;-47
2021/03/17 11:38:43;;;;;;;9.60;7.20;;;;;;;11.71;59.13;101363.94;4985684;28;20049;-48